Time;durP1;ratioP1;P1;durP2;ratioP2;P2;SDS_P1;SDS_P2;PMS_P1;PMS_P2;Temp;Humidity;BMP_temperature;BMP_pressure;BME280_temperature;BME280_humidity;BME280_pressure;Samples;Min_cycle;Max_cycle;Signal;HPM_P1;HPM_P2
2022/09/26 00:03:29;;;;;;;;;;;14.20;99.90;;;12.51;100.00;99480.88;10296975;28;96629;-87
2022/09/26 00:08:33;;;;;;;;;;;14.20;99.90;;;12.51;100.00;99474.72;10293748;28;97280;-87
2022/09/26 00:13:38;;;;;;;;;;;14.20;99.90;;;12.47;100.00;99471.59;10296970;28;96613;-87
2022/09/26 00:18:40;;;;;;;;;;;14.20;99.90;;;12.47;100.00;99466.28;10296251;28;96662;-87
2022/09/26 00:23:43;;;;;;;;;;;14.20;99.90;;;12.46;100.00;99469.16;10300578;28;96703;-87
2022/09/26 00:28:46;;;;;;;;;;;14.20;99.90;;;12.45;100.00;99454.19;10280823;28;96635;-88
2022/09/26 00:33:49;;;;;;;;;;;14.20;99.90;;;12.43;100.00;99438.41;10295762;28;98328;-88
2022/09/26 00:38:52;;;;;;;;;;;14.20;99.90;;;12.41;100.00;99435.09;10291133;28;96700;-89
2022/09/26 00:43:56;;;;;;;;;;;14.20;99.90;;;12.42;100.00;99447.44;10295851;28;96790;-91
2022/09/26 00:49:32;;;;;;;;;;;14.10;99.90;;;12.39;100.00;99426.50;10295873;28;96758;-91
2022/09/26 00:54:37;;;;;;;;;;;14.10;99.90;;;12.38;100.00;99416.84;10299771;28;97169;-92
2022/09/26 00:59:47;;;;;;;;;;;14.20;99.90;;;12.39;100.00;99423.00;10293423;28;96611;-91
2022/09/26 01:04:50;;;;;;;;;;;14.10;99.90;;;12.38;100.00;99408.03;10294612;28;96668;-92
2022/09/26 01:09:53;;;;;;;;;;;14.10;99.90;;;12.36;100.00;99421.56;10300969;28;96737;-91
2022/09/26 01:14:57;;;;;;;;;;;14.10;99.90;;;12.37;100.00;99404.56;10299695;28;96878;-91
2022/09/26 01:20:20;;;;;;;;;;;14.10;99.90;;;12.38;100.00;99408.88;10302507;28;96673;-92
2022/09/26 01:25:38;;;;;;;;;;;14.10;99.90;;;12.39;100.00;99401.69;10304210;28;97420;-91
2022/09/26 01:30:46;;;;;;;;;;;14.10;99.90;;;12.37;100.00;99391.25;10294499;28;96618;-91
2022/09/26 01:36:04;;;;;;;;;;;14.10;99.90;;;12.38;100.00;99392.06;10284810;28;96631;-91
2022/09/26 01:41:15;;;;;;;;;;;14.10;99.90;;;12.37;100.00;99385.91;10299037;28;97328;-92
2022/09/26 01:46:38;;;;;;;;;;;14.10;99.90;;;12.37;100.00;99388.56;10313954;28;98657;-92
2022/09/26 01:52:08;;;;;;;;;;;14.10;99.90;;;12.37;100.00;99372.59;10304227;28;96476;-91
2022/09/26 01:57:16;;;;;;;;;;;14.10;99.90;;;12.40;100.00;99358.03;10296101;28;96684;-89
2022/09/26 02:02:24;;;;;;;;;;;14.20;99.90;;;12.39;100.00;99343.91;10291649;28;98393;-88
2022/09/26 02:07:39;;;;;;;;;;;14.20;99.90;;;12.41;100.00;99351.69;10296132;28;97076;-88
2022/09/26 02:12:44;;;;;;;;;;;14.20;99.90;;;12.39;100.00;99354.56;10293043;28;98759;-87
2022/09/26 02:17:52;;;;;;;;;;;14.10;99.90;;;12.37;100.00;99351.28;10293415;28;96567;-87
2022/09/26 02:22:56;;;;;;;;;;;14.10;99.90;;;12.37;100.00;99351.28;10296623;28;96688;-87
2022/09/26 02:27:59;;;;;;;;;;;14.10;99.90;;;12.39;100.00;99337.75;10291121;28;96655;-87
2022/09/26 02:33:02;;;;;;;;;;;14.10;99.90;;;12.38;100.00;99310.28;10276806;28;96602;-88
2022/09/26 02:38:05;;;;;;;;;;;14.20;99.90;;;12.40;100.00;99329.53;10310960;28;96639;-89
2022/09/26 02:43:19;;;;;;;;;;;14.20;99.90;;;12.39;100.00;99338.56;10294441;28;98471;-89
2022/09/26 02:48:22;;;;;;;;;;;14.10;99.90;;;12.38;100.00;99331.59;10291672;28;96674;-90
2022/09/26 02:53:39;;;;;;;;;;;14.20;99.90;;;12.39;100.00;99345.75;10301523;28;98036;-90
2022/09/26 02:58:50;;;;;;;;;;;14.10;99.90;;;12.40;100.00;99348.19;10314562;28;98511;-90
2022/09/26 03:03:59;;;;;;;;;;;14.10;99.90;;;12.41;100.00;99339.19;10291259;28;98134;-90
2022/09/26 03:09:03;;;;;;;;;;;14.20;99.90;;;12.40;100.00;99323.41;10288464;28;96587;-90
2022/09/26 03:14:07;;;;;;;;;;;14.20;99.90;;;12.42;100.00;99327.53;10291865;28;96875;-91
2022/09/26 03:19:21;;;;;;;;;;;14.20;99.90;;;12.43;100.00;99329.16;10275828;28;97370;-89
2022/09/26 03:24:25;;;;;;;;;;;14.20;99.90;;;12.43;100.00;99312.34;10292618;28;96579;-89
2022/09/26 03:29:28;;;;;;;;;;;14.20;99.90;;;12.43;100.00;99299.84;10289237;28;96741;-87
2022/09/26 03:34:31;;;;;;;;;;;14.20;99.90;;;12.41;100.00;99304.53;10271007;28;96781;-89
2022/09/26 03:39:33;;;;;;;;;;;14.20;99.90;;;12.40;100.00;99316.22;10290673;28;96627;-89
2022/09/26 03:44:36;;;;;;;;;;;14.10;99.90;;;12.40;100.00;99313.56;10292500;28;96724;-88
2022/09/26 03:49:39;;;;;;;;;;;14.20;99.90;;;12.39;100.00;99301.25;10292402;28;97523;-86
2022/09/26 03:54:45;;;;;;;;;;;14.10;99.90;;;12.36;100.00;99275.03;10289864;28;96637;-86
2022/09/26 03:59:48;;;;;;;;;;;14.10;99.90;;;12.30;100.00;99278.50;10290493;28;97183;-83
2022/09/26 04:04:51;;;;;;;;;;;14.10;99.90;;;12.27;100.00;99276.25;10290687;28;97102;-85
2022/09/26 04:09:54;;;;;;;;;;;14.10;99.90;;;12.27;100.00;99270.91;10287093;28;96647;-83
2022/09/26 04:14:57;;;;;;;;;;;14.10;99.90;;;12.27;100.00;99263.72;10291248;28;96823;-83
2022/09/26 04:20:00;;;;;;;;;;;14.10;99.90;;;12.28;100.00;99259.22;10287200;28;96743;-83
2022/09/26 04:25:03;;;;;;;;;;;14.10;99.90;;;12.26;100.00;99253.28;10294121;28;96999;-81
2022/09/26 04:30:06;;;;;;;;;;;14.10;99.90;;;12.25;100.00;99235.66;10289927;28;96734;-81
2022/09/26 04:35:08;;;;;;;;;;;14.10;99.90;;;12.24;100.00;99239.38;10289826;28;96707;-81
2022/09/26 04:40:11;;;;;;;;;;;14.00;99.90;;;12.24;100.00;99244.69;10284798;28;96659;-81
2022/09/26 04:45:14;;;;;;;;;;;14.00;99.90;;;12.22;100.00;99230.72;10290193;28;96502;-80
2022/09/26 04:50:17;;;;;;;;;;;14.00;99.90;;;12.21;100.00;99226.44;10285553;28;98448;-80
2022/09/26 04:55:19;;;;;;;;;;;14.00;99.90;;;12.19;100.00;99242.63;10286707;28;96730;-80
2022/09/26 05:00:22;;;;;;;;;;;14.00;99.90;;;12.20;100.00;99262.09;10288165;28;97350;-81
2022/09/26 05:05:25;;;;;;;;;;;14.00;99.90;;;12.21;100.00;99255.72;10292725;28;96370;-80
2022/09/26 05:10:28;;;;;;;;;;;14.00;99.90;;;12.23;100.00;99253.69;10287743;28;98313;-80
2022/09/26 05:15:31;;;;;;;;;;;14.00;99.90;;;12.25;100.00;99251.66;10290225;28;96631;-80
2022/09/26 05:20:34;;;;;;;;;;;14.00;99.90;;;12.25;100.00;99225.03;10295177;28;96555;-80
2022/09/26 05:31:00;;;;;;;;;;;14.10;99.90;;;12.27;100.00;99234.44;10281057;28;96632;-80
2022/09/26 05:36:04;;;;;;;;;;;14.00;99.90;;;12.28;100.00;99240.59;10287679;28;96681;-80
2022/09/26 05:41:07;;;;;;;;;;;14.00;99.90;;;12.29;100.00;99226.22;10300716;28;96711;-80
2022/09/26 05:46:10;;;;;;;;;;;14.10;99.90;;;12.30;100.00;99234.03;10290971;28;96692;-80
2022/09/26 05:51:15;;;;;;;;;;;14.10;99.90;;;12.31;100.00;99242.84;10295792;28;96620;-80
2022/09/26 05:56:18;;;;;;;;;;;14.10;99.90;;;12.29;100.00;99253.72;10297679;28;96788;-80
2022/09/26 06:01:23;;;;;;;;;;;14.00;99.90;;;12.30;100.00;99246.53;10298469;28;96835;-80
2022/09/26 06:06:28;;;;;;;;;;;14.00;99.90;;;12.30;100.00;99243.88;10338363;28;96750;-80
2022/09/26 06:11:31;;;;;;;;;;;14.00;99.90;;;12.31;100.00;99234.88;10297505;28;96686;-80
2022/09/26 06:16:34;;;;;;;;;;;14.10;99.90;;;12.29;100.00;99228.91;10295645;28;96740;-81
2022/09/26 06:21:39;;;;;;;;;;;14.10;99.90;;;12.28;100.00;99209.44;10297370;28;97480;-80
2022/09/26 06:26:41;;;;;;;;;;;14.10;99.90;;;12.29;100.00;99220.91;10297717;28;96502;-80
2022/09/26 06:31:45;;;;;;;;;;;14.10;99.90;;;12.30;100.00;99228.72;10294665;28;96632;-80
2022/09/26 06:36:47;;;;;;;;;;;14.10;99.90;;;12.31;100.00;99219.69;10297128;28;97124;-80
2022/09/26 06:41:50;;;;;;;;;;;14.10;99.90;;;12.36;100.00;99227.09;10296493;28;96626;-80
2022/09/26 06:46:53;;;;;;;;;;;14.20;99.90;;;12.39;100.00;99224.00;10295043;28;96688;-80
2022/09/26 06:51:56;;;;;;;;;;;14.20;99.90;;;12.42;100.00;99222.78;10279690;28;96731;-80
2022/09/26 06:56:58;;;;;;;;;;;14.20;99.90;;;12.46;100.00;99226.66;10297408;28;96693;-80
2022/09/26 07:02:01;;;;;;;;;;;14.20;99.90;;;12.50;100.00;99218.06;10294913;28;96689;-80
2022/09/26 07:07:04;;;;;;;;;;;14.30;99.90;;;12.53;100.00;99207.03;10295474;28;96486;-80
2022/09/26 07:12:07;;;;;;;;;;;14.30;99.90;;;12.56;100.00;99224.44;10292599;28;97399;-80
2022/09/26 07:17:18;;;;;;;;;;;14.30;99.90;;;12.57;100.00;99208.22;10298119;28;97553;-80
2022/09/26 07:22:20;;;;;;;;;;;14.30;99.90;;;12.62;100.00;99226.28;10252388;28;96673;-80
2022/09/26 07:27:23;;;;;;;;;;;14.30;99.90;;;12.63;100.00;99222.59;10254478;28;98291;-80
2022/09/26 07:32:28;;;;;;;;;;;14.30;99.90;;;12.69;100.00;99232.44;10292349;28;96618;-81
2022/09/26 07:37:31;;;;;;;;;;;14.40;99.90;;;12.75;100.00;99231.59;10293593;28;98406;-81
2022/09/26 07:42:33;;;;;;;;;;;14.50;99.90;;;12.80;100.00;99244.31;10292048;28;96901;-80
2022/09/26 07:52:57;;;;;;;;;;;14.50;99.90;;;12.87;100.00;99245.13;10292951;28;96666;-80
2022/09/26 07:58:00;;;;;;;;;;;14.60;99.90;;;12.92;100.00;99253.34;10290762;28;96693;-80
2022/09/26 08:03:03;;;;;;;;;;;14.70;99.90;;;12.94;100.00;99253.94;10291601;28;97367;-80
2022/09/26 08:08:07;;;;;;;;;;;14.70;99.90;;;12.95;100.00;99258.25;10286921;28;98214;-80
2022/09/26 08:13:09;;;;;;;;;;;14.70;99.90;;;12.95;100.00;99252.91;10290589;28;96762;-81
2022/09/26 08:18:12;;;;;;;;;;;14.70;99.90;;;13.00;100.00;99239.78;10309180;28;98165;-80
2022/09/26 08:23:16;;;;;;;;;;;14.70;99.90;;;13.04;100.00;99251.69;10291223;28;96649;-80
2022/09/26 08:28:18;;;;;;;;;;;14.80;99.90;;;13.07;100.00;99240.63;10303304;28;96712;-80
2022/09/26 08:33:22;;;;;;;;;;;14.80;99.90;;;13.08;100.00;99249.44;10319464;28;96646;-80
2022/09/26 08:38:26;;;;;;;;;;;14.80;99.90;;;13.05;100.00;99249.84;10293796;28;98218;-81
2022/09/26 08:43:29;;;;;;;;;;;14.70;99.90;;;13.08;100.00;99252.13;10273693;28;96611;-81
2022/09/26 08:48:38;;;;;;;;;;;14.80;99.90;;;13.11;100.00;99257.84;10290695;28;97204;-81
2022/09/26 08:54:00;;;;;;;;;;;14.80;99.90;;;13.16;100.00;99254.56;10289643;28;96720;-81
2022/09/26 08:59:04;;;;;;;;;;;14.90;99.90;;;13.20;100.00;99253.13;10291115;28;96579;-81
2022/09/26 09:04:17;;;;;;;;;;;14.90;99.90;;;13.29;100.00;99269.75;10284437;28;96671;-82
2022/09/26 09:09:20;;;;;;;;;;;15.00;99.90;;;13.35;100.00;99261.72;10292670;28;96566;-81
2022/09/26 09:14:38;;;;;;;;;;;15.10;99.90;;;13.42;100.00;99272.38;10275491;28;97497;-81
2022/09/26 09:19:47;;;;;;;;;;;15.10;99.90;;;13.49;100.00;99259.03;10292449;28;96540;-81
2022/09/26 09:25:13;;;;;;;;;;;15.20;99.90;;;13.56;100.00;99250.00;10291363;28;96855;-81
2022/09/26 09:30:36;;;;;;;;;;;15.30;99.90;;;13.67;100.00;99264.50;10259462;28;96446;-81
2022/09/26 09:35:47;;;;;;;;;;;15.30;99.90;;;13.75;100.00;99256.28;10340184;28;96524;-81
2022/09/26 09:40:59;;;;;;;;;;;15.40;99.90;;;13.85;100.00;99250.47;10288323;28;96749;-80
2022/09/26 09:46:10;;;;;;;;;;;15.50;99.90;;;13.92;100.00;99251.28;10298982;28;96479;-80
2022/09/26 09:51:31;;;;;;;;;;;15.60;99.90;;;14.00;100.00;99243.03;10296523;28;96722;-81
2022/09/26 09:56:40;;;;;;;;;;;15.70;99.90;;;14.07;100.00;99243.00;10296045;28;97223;-81
2022/09/26 10:01:46;;;;;;;;;;;15.80;99.90;;;14.14;100.00;99235.75;10296653;28;96556;-81
2022/09/26 10:06:49;;;;;;;;;;;15.80;99.90;;;14.22;100.00;99235.53;10295901;28;96742;-81
2022/09/26 10:11:53;;;;;;;;;;;15.90;99.90;;;14.25;100.00;99226.25;10293829;28;96653;-81
2022/09/26 10:17:08;;;;;;;;;;;16.00;99.90;;;14.30;100.00;99224.56;10280934;28;96444;-81
2022/09/26 10:22:43;;;;;;;;;;;16.00;99.90;;;14.45;100.00;99226.91;10295779;28;96634;-80
2022/09/26 10:27:49;;;;;;;;;;;16.10;99.90;;;14.65;100.00;99235.66;10302577;28;96544;-80
2022/09/26 10:32:54;;;;;;;;;;;16.30;99.90;;;14.73;100.00;99221.19;10304068;28;96939;-80
2022/09/26 10:38:00;;;;;;;;;;;16.40;99.90;;;14.79;100.00;99208.81;10294803;28;96617;-81
2022/09/26 10:43:23;;;;;;;;;;;16.50;99.90;;;14.96;100.00;99197.31;10294738;28;97415;-80
2022/09/26 10:48:52;;;;;;;;;;;16.70;99.90;;;15.19;100.00;99206.56;10296394;28;96520;-80
2022/09/26 10:54:02;;;;;;;;;;;16.90;99.90;;;15.44;100.00;99193.94;10297680;28;96372;-80
2022/09/26 10:59:08;;;;;;;;;;;17.40;99.90;;;15.73;100.00;99181.66;10295992;28;96592;-80
2022/09/26 11:09:57;;;;;;;;;;;17.70;99.90;;;15.82;100.00;99200.91;10294499;28;96673;-81
2022/09/26 11:15:04;;;;;;;;;;;17.70;99.90;;;15.79;100.00;99199.50;10293070;28;98347;-80
2022/09/26 11:20:08;;;;;;;;;;;17.60;99.90;;;15.80;100.00;99197.66;10278142;28;96679;-81
2022/09/26 11:25:26;;;;;;;;;;;17.60;99.90;;;15.74;100.00;99214.63;10295828;28;96624;-82
2022/09/26 11:30:32;;;;;;;;;;;17.50;99.90;;;15.68;100.00;99227.06;10277507;28;96624;-81
2022/09/26 11:35:58;;;;;;;;;;;17.50;99.90;;;16.01;100.00;99215.94;10291185;28;96782;-81
2022/09/26 11:41:00;;;;;;;;;;;17.70;99.90;;;16.86;100.00;99212.19;10278687;28;96638;-81
2022/09/26 11:46:42;;;;;;;;;;;18.70;99.90;;;17.44;100.00;99210.50;10307703;28;96669;-81
2022/09/26 11:51:57;;;;;;;;;;;19.30;99.90;;;17.52;100.00;99205.59;10279849;28;96623;-81
2022/09/26 11:57:08;;;;;;;;;;;19.40;99.90;;;17.50;100.00;99198.81;10293803;28;96569;-79
2022/09/26 12:02:45;;;;;;;;;;;19.20;99.90;;;17.25;97.73;99199.91;10305497;28;97587;-79
2022/09/26 12:08:04;;;;;;;;;;;19.10;99.90;;;16.92;96.52;99205.88;10294370;28;96656;-81
2022/09/26 12:13:28;;;;;;;;;;;18.70;99.90;;;16.73;95.49;99196.28;10301689;28;96684;-82
2022/09/26 12:18:42;;;;;;;;;;;18.50;99.90;;;16.68;94.03;99205.03;10294794;28;96509;-80
2022/09/26 12:24:03;;;;;;;;;;;18.50;99.90;;;16.71;94.25;99201.06;10292913;28;96609;-80
2022/09/26 12:29:27;;;;;;;;;;;18.50;99.90;;;16.76;94.18;99180.56;10291012;28;96541;-80
2022/09/26 12:34:37;;;;;;;;;;;18.60;99.90;;;16.82;93.72;99170.75;10237892;28;96547;-80
2022/09/26 12:40:09;;;;;;;;;;;18.60;99.90;;;16.69;92.65;99169.09;10265939;28;96751;-79
2022/09/26 12:45:33;;;;;;;;;;;18.50;99.90;;;16.45;92.38;99170.13;10278440;28;96684;-80
2022/09/26 12:50:55;;;;;;;;;;;18.30;99.90;;;16.27;91.97;99173.69;10299873;28;96563;-80
2022/09/26 12:56:06;;;;;;;;;;;18.10;99.90;;;16.11;93.06;99166.31;10292723;28;96599;-80
2022/09/26 13:01:24;;;;;;;;;;;17.90;99.90;;;16.02;93.43;99149.75;10266805;28;96628;-81
2022/09/26 13:06:45;;;;;;;;;;;17.80;99.90;;;16.04;93.57;99137.75;10290103;28;97147;-80
2022/09/26 13:12:15;;;;;;;;;;;17.80;99.90;;;16.17;93.53;99139.41;10296625;28;97287;-87
2022/09/26 13:17:44;;;;;;;;;;;17.90;99.90;;;16.30;92.00;99122.28;10284871;28;96698;-89
2022/09/26 13:23:03;;;;;;;;;;;18.10;99.90;;;16.39;90.54;99139.69;10287847;28;97442;-87
2022/09/26 13:28:09;;;;;;;;;;;18.20;99.90;;;16.50;91.51;99132.72;10269997;28;98060;-87
2022/09/26 13:33:34;;;;;;;;;;;18.30;99.90;;;16.65;90.78;99135.72;10300058;28;98459;-91
2022/09/26 13:38:58;;;;;;;;;;;18.40;99.90;;;16.68;89.37;99139.84;10283178;28;97339;-86
2022/09/26 13:44:17;;;;;;;;;;;18.50;99.90;;;16.76;89.29;99134.13;10302319;28;97838;-87
2022/09/26 13:49:53;;;;;;;;;;;18.60;99.90;;;16.77;88.87;99139.25;10260011;28;96651;-83
2022/09/26 13:55:09;;;;;;;;;;;18.70;99.90;;;16.65;87.12;99138.41;10283721;28;97759;-83
2022/09/26 14:00:22;;;;;;;;;;;18.50;99.90;;;16.49;84.95;99141.78;10274889;28;96597;-87
2022/09/26 14:05:45;;;;;;;;;;;18.40;99.90;;;16.37;85.82;99138.25;10291491;28;96548;-85
2022/09/26 14:10:52;;;;;;;;;;;18.20;99.90;;;16.33;86.23;99127.22;10301622;28;96628;-85
2022/09/26 14:15:58;;;;;;;;;;;18.10;99.90;;;16.36;86.87;99124.03;10292016;28;97369;-82
2022/09/26 14:21:08;;;;;;;;;;;18.20;99.90;;;16.43;88.08;99122.06;10297342;28;96550;-81
2022/09/26 14:26:26;;;;;;;;;;;18.30;99.90;;;16.47;87.73;99125.94;10293841;28;97307;-81
2022/09/26 14:31:37;;;;;;;;;;;18.30;99.90;;;16.47;88.78;99104.47;10307141;28;96773;-82
2022/09/26 14:36:40;;;;;;;;;;;18.40;99.90;;;16.48;89.66;99100.75;10293359;28;98036;-85
2022/09/26 14:41:43;;;;;;;;;;;18.40;99.90;;;16.52;90.65;99106.47;10278452;28;96644;-88
2022/09/26 14:46:51;;;;;;;;;;;18.40;99.90;;;16.55;90.73;99087.22;10293143;28;96744;-89
2022/09/26 14:51:58;;;;;;;;;;;18.50;99.90;;;16.53;91.17;99082.09;10293450;28;96515;-86
2022/09/26 14:57:07;;;;;;;;;;;18.40;99.90;;;16.49;91.05;99085.47;10290366;28;96612;-86
2022/09/26 15:02:15;;;;;;;;;;;18.40;99.90;;;16.46;91.35;99084.06;10294628;28;97815;-84
2022/09/26 15:07:23;;;;;;;;;;;18.40;99.90;;;16.45;nan;99087.00;10288253;28;96647;-88
2022/09/26 15:12:38;;;;;;;;;;;18.40;99.90;;;16.42;93.54;99082.91;10291262;28;97221;-84
2022/09/26 15:17:51;;;;;;;;;;;18.30;99.90;;;16.43;93.47;99073.00;10290764;28;96680;-89
2022/09/26 15:22:56;;;;;;;;;;;18.30;99.90;;;16.40;93.59;99065.44;10293303;28;96639;-89
2022/09/26 15:27:59;;;;;;;;;;;18.40;99.90;;;16.35;94.11;99065.31;10278719;28;96573;-86
2022/09/26 15:33:03;;;;;;;;;;;18.30;99.90;;;16.37;94.84;99068.56;10305557;28;96703;-86
2022/09/26 15:38:10;;;;;;;;;;;18.30;99.90;;;16.36;95.38;99066.94;10287669;28;96625;-88
2022/09/26 15:43:21;;;;;;;;;;;18.40;99.90;;;16.36;96.26;99050.84;10289265;28;96712;-86
2022/09/26 15:48:24;;;;;;;;;;;18.30;99.90;;;16.39;97.34;99066.47;10292622;28;96618;-86
2022/09/26 15:53:54;;;;;;;;;;;18.30;99.90;;;16.35;97.51;99070.66;10292998;28;98111;-87
2022/09/26 15:59:01;;;;;;;;;;;18.30;99.90;;;16.28;97.93;99062.75;10303738;28;96535;-87
2022/09/26 16:04:12;;;;;;;;;;;18.10;99.90;;;16.16;97.74;99054.69;10302446;28;96544;-87
2022/09/26 16:09:32;;;;;;;;;;;18.00;99.90;;;15.99;98.15;99057.22;10287920;28;96529;-85
2022/09/26 16:14:45;;;;;;;;;;;17.90;99.90;;;15.84;98.50;99070.25;10290525;28;96561;-85
2022/09/26 16:20:11;;;;;;;;;;;17.70;99.90;;;15.72;99.30;99061.38;10274727;28;96799;-85
2022/09/26 16:25:14;;;;;;;;;;;17.60;99.90;;;15.60;99.63;99058.63;10272642;28;96621;-85
2022/09/26 16:30:24;;;;;;;;;;;17.50;99.90;;;15.43;100.00;99063.00;10307323;28;96654;-86
2022/09/26 16:35:28;;;;;;;;;;;17.30;99.90;;;15.27;100.00;99062.56;10286295;28;96607;-84
2022/09/26 16:40:33;;;;;;;;;;;17.10;99.90;;;15.05;100.00;99071.28;10292083;28;96961;-84
2022/09/26 16:45:44;;;;;;;;;;;16.90;99.90;;;14.77;99.39;99069.97;10271267;28;98388;-85
2022/09/26 16:50:46;;;;;;;;;;;16.70;99.90;;;14.51;99.05;99051.50;10289577;28;97907;-85
2022/09/26 16:55:51;;;;;;;;;;;16.40;99.90;;;14.30;98.99;99052.72;10284122;28;96684;-85
2022/09/26 17:06:15;;;;;;;;;;;16.00;99.90;;;13.95;99.59;99071.91;10289838;28;96795;-85
2022/09/26 17:11:18;;;;;;;;;;;15.90;99.90;;;13.78;99.83;99071.63;10289785;28;96688;-85
2022/09/26 17:16:21;;;;;;;;;;;15.70;99.90;;;13.67;100.00;99072.31;10283244;28;97409;-85
2022/09/26 17:21:24;;;;;;;;;;;15.60;99.90;;;13.60;100.00;99080.34;10273398;28;96655;-85
2022/09/26 17:26:28;;;;;;;;;;;15.40;99.90;;;13.47;100.00;99077.75;10287526;28;96918;-85
2022/09/26 17:31:32;;;;;;;;;;;15.40;99.90;;;13.43;100.00;99078.41;10271502;28;98356;-85
2022/09/26 17:36:35;;;;;;;;;;;15.30;99.90;;;13.34;100.00;99067.97;10286415;28;96663;-86
2022/09/26 17:41:38;;;;;;;;;;;15.20;99.90;;;13.26;100.00;99078.09;10249546;28;97401;-85
2022/09/26 17:46:41;;;;;;;;;;;15.20;99.90;;;13.14;100.00;99075.25;10271238;28;96805;-85
2022/09/26 17:51:44;;;;;;;;;;;15.10;99.90;;;13.04;100.00;99075.69;10298307;28;96714;-85
2022/09/26 17:56:47;;;;;;;;;;;15.00;99.90;;;12.98;100.00;99076.53;10284987;28;96836;-85
2022/09/26 18:01:56;;;;;;;;;;;14.90;99.90;;;12.89;100.00;99077.75;10289507;28;97246;-85
2022/09/26 18:07:03;;;;;;;;;;;14.80;99.90;;;12.84;100.00;99074.94;10296569;28;96655;-88
2022/09/26 18:12:11;;;;;;;;;;;14.80;99.90;;;12.78;100.00;99071.25;10295239;28;96867;-86
2022/09/26 18:17:15;;;;;;;;;;;14.70;99.90;;;12.71;100.00;99074.94;10293840;28;97117;-89
2022/09/26 18:22:21;;;;;;;;;;;14.60;99.90;;;12.63;100.00;99069.84;10275419;28;97106;-85
2022/09/26 18:27:24;;;;;;;;;;;14.60;99.90;;;12.58;100.00;99071.28;10295110;28;96624;-88
2022/09/26 18:32:32;;;;;;;;;;;14.50;99.90;;;12.49;100.00;99074.41;10292109;28;98303;-87
2022/09/26 18:37:35;;;;;;;;;;;14.40;99.90;;;12.41;100.00;99074.59;10292474;28;96737;-85
2022/09/26 18:42:38;;;;;;;;;;;14.30;99.90;;;12.33;100.00;99062.31;10292574;28;97091;-80
2022/09/26 18:47:43;;;;;;;;;;;14.20;99.90;;;12.27;100.00;99065.81;10298315;28;98256;-80
2022/09/26 18:52:46;;;;;;;;;;;14.10;99.90;;;12.19;100.00;99066.03;10271806;28;98426;-80
2022/09/26 19:03:10;;;;;;;;;;;14.00;99.90;;;12.11;100.00;99074.19;10289226;28;98175;-81
2022/09/26 19:08:31;;;;;;;;;;;14.00;99.90;;;12.09;100.00;99073.59;10289509;28;97449;-87
2022/09/26 19:13:34;;;;;;;;;;;13.90;99.90;;;12.07;100.00;99080.97;10269460;28;98307;-88
2022/09/26 19:18:37;;;;;;;;;;;13.90;99.90;;;12.05;100.00;99079.34;10295850;28;96460;-87
2022/09/26 19:23:40;;;;;;;;;;;13.90;99.90;;;12.05;100.00;99084.69;10293437;28;97438;-87
2022/09/26 19:28:43;;;;;;;;;;;13.90;99.90;;;12.03;100.00;99092.03;10275208;28;96843;-86
2022/09/26 19:33:47;;;;;;;;;;;13.90;99.90;;;11.98;100.00;99093.66;10310570;28;96488;-88
2022/09/26 19:38:51;;;;;;;;;;;13.80;99.90;;;11.93;100.00;99088.94;10304422;28;96751;-87
2022/09/26 19:43:53;;;;;;;;;;;13.80;99.90;;;11.88;100.00;99094.06;10315946;28;98464;-88
2022/09/26 19:48:56;;;;;;;;;;;13.80;99.90;;;11.86;100.00;99088.13;10292365;28;96661;-88
2022/09/26 19:53:59;;;;;;;;;;;13.80;99.90;;;11.82;100.00;99096.72;10271162;28;96745;-89
2022/09/26 19:59:10;;;;;;;;;;;13.70;99.90;;;11.77;100.00;99094.63;10292987;28;97270;-89
2022/09/26 20:04:18;;;;;;;;;;;13.70;99.90;;;11.69;100.00;99086.81;10295387;28;97198;-89
2022/09/26 20:09:20;;;;;;;;;;;13.60;99.90;;;11.69;100.00;99089.50;10289885;28;97418;-88
2022/09/26 20:14:23;;;;;;;;;;;13.60;99.90;;;11.71;100.00;99085.63;10291845;28;97528;-87
2022/09/26 20:19:32;;;;;;;;;;;13.60;99.90;;;11.73;100.00;99074.75;10289789;28;96581;-87
2022/09/26 20:24:36;;;;;;;;;;;13.60;99.90;;;11.73;100.00;99082.75;10284440;28;96551;-87
2022/09/26 20:35:02;;;;;;;;;;;13.60;99.90;;;11.79;100.00;99072.09;10287942;28;97816;-88
2022/09/26 20:40:16;;;;;;;;;;;13.70;99.90;;;11.83;100.00;99072.56;10288448;28;96680;-88
2022/09/26 20:45:26;;;;;;;;;;;13.70;99.90;;;11.83;100.00;99077.06;10287733;28;98325;-88
2022/09/26 20:50:29;;;;;;;;;;;13.80;99.90;;;11.82;100.00;99076.25;10251648;28;96726;-88
2022/09/26 20:55:35;;;;;;;;;;;13.70;99.90;;;11.78;100.00;99069.66;10273866;28;96606;-88
2022/09/26 21:00:45;;;;;;;;;;;13.70;99.90;;;11.77;100.00;99073.34;10290276;28;96663;-89
2022/09/26 21:05:48;;;;;;;;;;;13.70;99.90;;;11.75;100.00;99072.72;10296428;28;98070;-87
2022/09/26 21:10:51;;;;;;;;;;;13.70;99.90;;;11.73;100.00;99064.94;10286933;28;96630;-88
2022/09/26 21:15:54;;;;;;;;;;;13.60;99.90;;;11.69;100.00;99061.03;10287551;28;96640;-87
2022/09/26 21:21:05;;;;;;;;;;;13.60;99.90;;;11.70;100.00;99056.56;10289896;28;97113;-88
2022/09/26 21:26:19;;;;;;;;;;;13.60;99.90;;;11.66;100.00;99044.66;10292386;28;96821;-87
2022/09/26 21:31:30;;;;;;;;;;;13.60;99.90;;;11.65;100.00;99048.34;10295782;28;98493;-87
2022/09/26 21:36:36;;;;;;;;;;;13.60;99.90;;;11.63;100.00;99039.75;10294971;28;97406;-87
2022/09/26 21:41:39;;;;;;;;;;;13.50;99.90;;;11.62;100.00;99022.97;10295319;28;96573;-88
2022/09/26 21:46:42;;;;;;;;;;;13.50;99.90;;;11.68;100.00;99040.78;10294136;28;96639;-88
2022/09/26 21:51:48;;;;;;;;;;;13.50;99.90;;;11.71;100.00;99043.03;10297562;28;96601;-87
2022/09/26 21:56:59;;;;;;;;;;;13.60;99.90;;;11.72;100.00;99035.88;10294851;28;96741;-87
2022/09/26 22:02:02;;;;;;;;;;;13.60;99.90;;;11.72;100.00;99027.88;10278085;28;96852;-87
2022/09/26 22:07:06;;;;;;;;;;;13.60;99.90;;;11.73;100.00;99019.69;10278629;28;96502;-87
2022/09/26 22:12:09;;;;;;;;;;;13.60;99.90;;;11.73;100.00;99008.22;10298541;28;96740;-87
2022/09/26 22:17:11;;;;;;;;;;;13.60;99.90;;;11.77;100.00;99014.78;10308314;28;97404;-88
2022/09/26 22:22:16;;;;;;;;;;;13.60;99.90;;;11.79;100.00;99018.06;10297594;28;96581;-87
2022/09/26 22:27:20;;;;;;;;;;;13.70;99.90;;;11.79;100.00;99013.56;10294267;28;96715;-87
2022/09/26 22:32:23;;;;;;;;;;;13.70;99.90;;;11.83;100.00;99006.03;10293793;28;96938;-86
2022/09/26 22:37:25;;;;;;;;;;;13.80;99.90;;;11.84;100.00;98994.34;10296574;28;98435;-87
2022/09/26 22:42:28;;;;;;;;;;;13.80;99.90;;;11.84;100.00;98989.03;10293254;28;98322;-88
2022/09/26 22:47:31;;;;;;;;;;;13.70;99.90;;;11.82;100.00;98975.13;10291288;28;97375;-88
2022/09/26 22:52:33;;;;;;;;;;;13.70;99.90;;;11.84;100.00;98973.06;10293158;28;98338;-87
2022/09/26 22:57:36;;;;;;;;;;;13.80;99.90;;;11.88;100.00;98968.97;10271446;28;96697;-88
2022/09/26 23:02:39;;;;;;;;;;;13.80;99.90;;;11.90;100.00;98960.75;10285047;28;96621;-88
2022/09/26 23:07:41;;;;;;;;;;;13.80;99.90;;;11.93;100.00;98957.69;10301954;28;96860;-88
2022/09/26 23:12:44;;;;;;;;;;;13.80;99.90;;;11.92;100.00;98954.19;10282820;28;96699;-88
2022/09/26 23:17:47;;;;;;;;;;;13.80;99.90;;;11.91;100.00;98949.91;10293175;28;97422;-89
2022/09/26 23:22:49;;;;;;;;;;;13.80;99.90;;;11.91;100.00;98941.91;10271810;28;96684;-89
2022/09/26 23:27:52;;;;;;;;;;;13.80;99.90;;;11.92;100.00;98932.91;10306210;28;96674;-89
2022/09/26 23:32:55;;;;;;;;;;;13.90;99.90;;;11.91;100.00;98928.59;10290607;28;96660;-89
2022/09/26 23:37:57;;;;;;;;;;;13.80;99.90;;;11.89;100.00;98922.69;10293656;28;96515;-89
2022/09/26 23:43:01;;;;;;;;;;;13.80;99.90;;;11.88;100.00;98914.91;10292652;28;96633;-89